YLABB EVRA-EVRA
Flight info
| Callsign | YLABB |
|---|---|
| Flight time | N/A |
| Altitude | 2000 |
| Route | EVRA LOCAL FLIGHT |
| Aircraft | DA62/L-VGDW/C |
Departure
| Time | 2026-04-29 17:53 |
|---|---|
| Airport | Riga International Airport (EVRA) |
Arrival
| Time | N/A |
|---|---|
| Airport | Riga International Airport (EVRA) |
| Time | Latitude | Longitude | Altitude | Speed | Heading |
|---|---|---|---|---|---|
| 2026-04-29 17:36 | 56.91656 | 23.97573 | 32 ft | 0 kts | 271° |
| 2026-04-29 17:47 | 56.91657 | 23.97566 | 32 ft | 1 kts | 301° |
| 2026-04-29 17:48 | 56.91693 | 23.97543 | 32 ft | 8 kts | 309° |
| 2026-04-29 17:48 | 56.91706 | 23.97453 | 32 ft | 9 kts | 275° |
| 2026-04-29 17:48 | 56.91711 | 23.97362 | 32 ft | 9 kts | 273° |
| 2026-04-29 17:48 | 56.91716 | 23.97238 | 32 ft | 9 kts | 275° |
| 2026-04-29 17:49 | 56.91717 | 23.97212 | 32 ft | 0 kts | 273° |
| 2026-04-29 17:50 | 56.91718 | 23.97202 | 32 ft | 7 kts | 273° |
| 2026-04-29 17:50 | 56.91734 | 23.97024 | 30 ft | 12 kts | 313° |
| 2026-04-29 17:50 | 56.91751 | 23.97013 | 30 ft | 0 kts | 8° |
| 2026-04-29 17:52 | 56.91906 | 23.97037 | 31 ft | 53 kts | 5° |
| 2026-04-29 17:53 | 56.92429 | 23.97121 | 37 ft | 95 kts | 5° |
| 2026-04-29 17:53 | 56.93122 | 23.97234 | 225 ft | 102 kts | 4° |
| 2026-04-29 17:53 | 56.93830 | 23.97356 | 546 ft | 100 kts | 3° |
| 2026-04-29 17:53 | 56.94504 | 23.97473 | 911 ft | 95 kts | 5° |
| 2026-04-29 17:54 | 56.95116 | 23.97968 | 1216 ft | 102 kts | 38° |
| 2026-04-29 17:54 | 56.95423 | 23.99194 | 1462 ft | 116 kts | 80° |
| 2026-04-29 17:54 | 56.95299 | 24.00732 | 1671 ft | 127 kts | 98° |
| 2026-04-29 17:54 | 56.95059 | 24.02336 | 1922 ft | 130 kts | 102° |
| 2026-04-29 17:55 | 56.94768 | 24.03966 | 1985 ft | 145 kts | 104° |
| 2026-04-29 17:55 | 56.94380 | 24.05779 | 1905 ft | 160 kts | 120° |
| 2026-04-29 17:55 | 56.93524 | 24.06935 | 1790 ft | 152 kts | 163° |
| 2026-04-29 17:55 | 56.92495 | 24.06986 | 1667 ft | 145 kts | 188° |
| 2026-04-29 17:56 | 56.91503 | 24.06753 | 1544 ft | 141 kts | 191° |
| 2026-04-29 17:56 | 56.90552 | 24.06481 | 1520 ft | 132 kts | 191° |
| 2026-04-29 17:56 | 56.89671 | 24.06229 | 1528 ft | 124 kts | 190° |
| 2026-04-29 17:56 | 56.88817 | 24.06002 | 1537 ft | 124 kts | 190° |
| 2026-04-29 17:57 | 56.87965 | 24.05791 | 1559 ft | 123 kts | 190° |
| 2026-04-29 17:57 | 56.87131 | 24.05570 | 1591 ft | 122 kts | 191° |
| 2026-04-29 17:57 | 56.86286 | 24.05358 | 1615 ft | 123 kts | 189° |
| 2026-04-29 17:57 | 56.85753 | 24.05172 | 1548 ft | 113 kts | 202° |
| 2026-04-29 17:58 | 56.84972 | 24.03950 | 1175 ft | 111 kts | 244° |
| 2026-04-29 17:58 | 56.84759 | 24.02699 | 912 ft | 101 kts | 273° |
| 2026-04-29 17:58 | 56.84753 | 24.01345 | 805 ft | 117 kts | 275° |
| 2026-04-29 17:58 | 56.84771 | 23.99820 | 1029 ft | 121 kts | 276° |
| 2026-04-29 17:59 | 56.84794 | 23.98265 | 1240 ft | 126 kts | 278° |
| 2026-04-29 17:59 | 56.84910 | 23.96649 | 1325 ft | 128 kts | 296° |
| 2026-04-29 17:59 | 56.85566 | 23.95642 | 1196 ft | 134 kts | 349° |
| 2026-04-29 17:59 | 56.86414 | 23.95828 | 879 ft | 108 kts | 14° |
| 2026-04-29 18:00 | 56.87083 | 23.96160 | 702 ft | 95 kts | 11° |
| 2026-04-29 18:00 | 56.87520 | 23.96319 | 607 ft | 98 kts | 6° |
| 2026-04-29 18:00 | 56.88193 | 23.96426 | 544 ft | 93 kts | 4° |
| 2026-04-29 18:00 | 56.89058 | 23.96594 | 369 ft | 94 kts | 2° |
| 2026-04-29 18:01 | 56.89705 | 23.96684 | 250 ft | 92 kts | 4° |
| 2026-04-29 18:01 | 56.90138 | 23.96747 | 171 ft | 93 kts | 4° |
| 2026-04-29 18:01 | 56.90735 | 23.96842 | 62 ft | 78 kts | 5° |
| 2026-04-29 18:01 | 56.91235 | 23.96927 | 34 ft | 61 kts | 5° |
| 2026-04-29 18:02 | 56.91742 | 23.97008 | 47 ft | 87 kts | 5° |
| 2026-04-29 18:02 | 56.92401 | 23.97119 | 215 ft | 98 kts | 4° |
| 2026-04-29 18:02 | 56.93111 | 23.97276 | 439 ft | 110 kts | 9° |
| 2026-04-29 18:02 | 56.93901 | 23.97558 | 689 ft | 120 kts | 8° |
| 2026-04-29 18:03 | 56.94731 | 23.97849 | 974 ft | 124 kts | 9° |
| 2026-04-29 18:03 | 56.95594 | 23.98145 | 1278 ft | 127 kts | 9° |
| 2026-04-29 18:03 | 56.96471 | 23.98442 | 1570 ft | 129 kts | 8° |
| 2026-04-29 18:03 | 56.97318 | 23.98983 | 1858 ft | 134 kts | 38° |
| 2026-04-29 18:04 | 56.97629 | 24.00600 | 2135 ft | 148 kts | 89° |
| 2026-04-29 18:04 | 56.97397 | 24.02507 | 2286 ft | 159 kts | 98° |
| 2026-04-29 18:04 | 56.97165 | 24.04557 | 2286 ft | 161 kts | 98° |
| 2026-04-29 18:04 | 56.96584 | 24.06207 | 2280 ft | 158 kts | 145° |
| 2026-04-29 18:05 | 56.95551 | 24.06578 | 2287 ft | 150 kts | 188° |
| 2026-04-29 18:05 | 56.94526 | 24.06344 | 2282 ft | 146 kts | 189° |
| 2026-04-29 18:05 | 56.93523 | 24.06138 | 2280 ft | 144 kts | 189° |
| 2026-04-29 18:05 | 56.92534 | 24.05939 | 2278 ft | 141 kts | 189° |
| 2026-04-29 18:06 | 56.91558 | 24.05741 | 2279 ft | 139 kts | 189° |
| 2026-04-29 18:06 | 56.90608 | 24.05548 | 2276 ft | 138 kts | 189° |
| 2026-04-29 18:06 | 56.89653 | 24.05352 | 2280 ft | 137 kts | 189° |
| 2026-04-29 18:06 | 56.88704 | 24.05163 | 2277 ft | 136 kts | 189° |
| 2026-04-29 18:07 | 56.87761 | 24.04978 | 2282 ft | 136 kts | 189° |
| 2026-04-29 18:07 | 56.86822 | 24.04791 | 2284 ft | 136 kts | 188° |
| 2026-04-29 18:07 | 56.85878 | 24.04598 | 2283 ft | 136 kts | 189° |
| 2026-04-29 18:07 | 56.84951 | 24.04406 | 2279 ft | 136 kts | 189° |
| 2026-04-29 18:08 | 56.84015 | 24.04211 | 2283 ft | 135 kts | 189° |
| 2026-04-29 18:08 | 56.83065 | 24.04023 | 2234 ft | 138 kts | 188° |
| 2026-04-29 18:08 | 56.82093 | 24.03826 | 2182 ft | 141 kts | 189° |
| 2026-04-29 18:08 | 56.81108 | 24.03623 | 2130 ft | 143 kts | 188° |
| 2026-04-29 18:09 | 56.80116 | 24.03392 | 2077 ft | 144 kts | 195° |
| 2026-04-29 18:09 | 56.79384 | 24.02325 | 2010 ft | 134 kts | 252° |
| 2026-04-29 18:09 | 56.79312 | 24.00737 | 1995 ft | 125 kts | 278° |
| 2026-04-29 18:09 | 56.79332 | 23.99168 | 1993 ft | 123 kts | 277° |
| 2026-04-29 18:10 | 56.79343 | 23.97622 | 1995 ft | 121 kts | 277° |
| 2026-04-29 18:10 | 56.79354 | 23.96091 | 1994 ft | 120 kts | 277° |
| 2026-04-29 18:10 | 56.79407 | 23.94594 | 1988 ft | 115 kts | 295° |
| 2026-04-29 18:10 | 56.79984 | 23.93806 | 1989 ft | 108 kts | 358° |
| 2026-04-29 18:11 | 56.80661 | 23.94368 | 1992 ft | 111 kts | 30° |
| 2026-04-29 18:11 | 56.81327 | 23.95018 | 1776 ft | 107 kts | 16° |
| 2026-04-29 18:11 | 56.81994 | 23.95413 | 1650 ft | 92 kts | 7° |
| 2026-04-29 18:11 | 56.82597 | 23.95558 | 1588 ft | 85 kts | 1° |
| 2026-04-29 18:12 | 56.83184 | 23.95590 | 1525 ft | 85 kts | 357° |
| 2026-04-29 18:12 | 56.83781 | 23.95676 | 1436 ft | 87 kts | 2° |
| 2026-04-29 18:12 | 56.84385 | 23.95810 | 1344 ft | 89 kts | 3° |
| 2026-04-29 18:12 | 56.84997 | 23.95922 | 1234 ft | 88 kts | 2° |
| 2026-04-29 18:13 | 56.85612 | 23.96024 | 1109 ft | 89 kts | 1° |
| 2026-04-29 18:13 | 56.86232 | 23.96113 | 974 ft | 90 kts | 1° |
| 2026-04-29 18:13 | 56.86855 | 23.96214 | 845 ft | 90 kts | 2° |
| 2026-04-29 18:13 | 56.87482 | 23.96315 | 717 ft | 91 kts | 2° |
| 2026-04-29 18:14 | 56.88116 | 23.96420 | 608 ft | 92 kts | 2° |
| 2026-04-29 18:14 | 56.88730 | 23.96522 | 440 ft | 87 kts | 2° |
| 2026-04-29 18:14 | 56.89324 | 23.96608 | 315 ft | 84 kts | 4° |
| 2026-04-29 18:14 | 56.89891 | 23.96706 | 216 ft | 81 kts | 4° |
| 2026-04-29 18:15 | 56.90452 | 23.96795 | 114 ft | 80 kts | 7° |
| 2026-04-29 18:15 | 56.91007 | 23.96885 | 40 ft | 77 kts | 6° |
| 2026-04-29 18:15 | 56.91474 | 23.96964 | 33 ft | 68 kts | 5° |
| 2026-04-29 18:15 | 56.92070 | 23.97054 | 91 ft | 100 kts | 4° |
| 2026-04-29 18:16 | 56.92777 | 23.97123 | 364 ft | 104 kts | 1° |
| 2026-04-29 18:16 | 56.93541 | 23.97174 | 644 ft | 115 kts | 1° |
| 2026-04-29 18:16 | 56.94364 | 23.97237 | 902 ft | 121 kts | 1° |
| 2026-04-29 18:16 | 56.95218 | 23.97307 | 1181 ft | 127 kts | 1° |
| 2026-04-29 18:17 | 56.96115 | 23.97390 | 1448 ft | 130 kts | 1° |
| 2026-04-29 18:17 | 56.97025 | 23.97483 | 1716 ft | 132 kts | 1° |
| 2026-04-29 18:17 | 56.97948 | 23.97599 | 1971 ft | 135 kts | 6° |
| 2026-04-29 18:17 | 56.98758 | 23.98629 | 1982 ft | 158 kts | 54° |
| 2026-04-29 18:18 | 56.98906 | 24.00716 | 1986 ft | 178 kts | 99° |
| 2026-04-29 18:18 | 56.98290 | 24.02699 | 1983 ft | 190 kts | 136° |
| 2026-04-29 18:18 | 56.97129 | 24.03839 | 2067 ft | 187 kts | 159° |
| 2026-04-29 18:18 | 56.95921 | 24.04642 | 2172 ft | 182 kts | 159° |
| 2026-04-29 18:19 | 56.94750 | 24.05511 | 2277 ft | 179 kts | 156° |
| 2026-04-29 18:19 | 56.93610 | 24.06419 | 2382 ft | 178 kts | 156° |
| 2026-04-29 18:19 | 56.92491 | 24.07302 | 2481 ft | 177 kts | 156° |
| 2026-04-29 18:19 | 56.91341 | 24.08198 | 2483 ft | 182 kts | 157° |
| 2026-04-29 18:20 | 56.90167 | 24.09111 | 2482 ft | 184 kts | 156° |
| 2026-04-29 18:20 | 56.88979 | 24.10037 | 2482 ft | 186 kts | 156° |
| 2026-04-29 18:20 | 56.87788 | 24.10965 | 2490 ft | 187 kts | 156° |
| 2026-04-29 18:20 | 56.86585 | 24.11898 | 2490 ft | 188 kts | 156° |
| 2026-04-29 18:21 | 56.85377 | 24.12839 | 2490 ft | 189 kts | 155° |
| 2026-04-29 18:21 | 56.84180 | 24.13771 | 2490 ft | 189 kts | 156° |
| 2026-04-29 18:21 | 56.82963 | 24.14715 | 2490 ft | 190 kts | 156° |
| 2026-04-29 18:21 | 56.81743 | 24.15661 | 2490 ft | 190 kts | 156° |
| 2026-04-29 18:22 | 56.80521 | 24.16608 | 2492 ft | 190 kts | 155° |
| 2026-04-29 18:22 | 56.79299 | 24.17555 | 2492 ft | 191 kts | 155° |
| 2026-04-29 18:22 | 56.78090 | 24.18490 | 2492 ft | 191 kts | 155° |
| 2026-04-29 18:22 | 56.76868 | 24.19437 | 2492 ft | 191 kts | 155° |
| 2026-04-29 18:23 | 56.75644 | 24.20382 | 2491 ft | 191 kts | 156° |
| 2026-04-29 18:23 | 56.74414 | 24.21308 | 2488 ft | 191 kts | 160° |
| 2026-04-29 18:23 | 56.73090 | 24.21467 | 2477 ft | 192 kts | 179° |
| 2026-04-29 18:23 | 56.71827 | 24.22087 | 2481 ft | 191 kts | 158° |
| 2026-04-29 18:24 | 56.70590 | 24.22980 | 2476 ft | 191 kts | 157° |
| 2026-04-29 18:24 | 56.69340 | 24.23799 | 2476 ft | 191 kts | 161° |
| 2026-04-29 18:24 | 56.68061 | 24.24495 | 2475 ft | 191 kts | 163° |
| 2026-04-29 18:24 | 56.66784 | 24.25164 | 2474 ft | 191 kts | 163° |
| 2026-04-29 18:25 | 56.65528 | 24.25838 | 2474 ft | 191 kts | 163° |
| 2026-04-29 18:25 | 56.64252 | 24.26527 | 2477 ft | 190 kts | 162° |
| 2026-04-29 18:25 | 56.62986 | 24.27205 | 2476 ft | 189 kts | 162° |
| 2026-04-29 18:25 | 56.61730 | 24.27883 | 2476 ft | 188 kts | 162° |
| 2026-04-29 18:26 | 56.60473 | 24.28559 | 2474 ft | 188 kts | 162° |
| 2026-04-29 18:26 | 56.59215 | 24.29232 | 2474 ft | 188 kts | 162° |
| 2026-04-29 18:26 | 56.57972 | 24.29898 | 2474 ft | 188 kts | 162° |
| 2026-04-29 18:26 | 56.56713 | 24.30573 | 2474 ft | 188 kts | 162° |
| 2026-04-29 18:27 | 56.55455 | 24.31248 | 2476 ft | 188 kts | 162° |
| 2026-04-29 18:27 | 56.54217 | 24.31910 | 2468 ft | 188 kts | 162° |
| 2026-04-29 18:27 | 56.52959 | 24.32580 | 2468 ft | 188 kts | 162° |
| 2026-04-29 18:27 | 56.51705 | 24.33252 | 2468 ft | 187 kts | 162° |
| 2026-04-29 18:28 | 56.50447 | 24.33926 | 2466 ft | 187 kts | 162° |
| 2026-04-29 18:28 | 56.49196 | 24.34592 | 2466 ft | 187 kts | 162° |
| 2026-04-29 18:28 | 56.47959 | 24.35250 | 2466 ft | 187 kts | 162° |
| 2026-04-29 18:28 | 56.46707 | 24.35918 | 2477 ft | 187 kts | 162° |
| 2026-04-29 18:29 | 56.45451 | 24.36589 | 2476 ft | 189 kts | 162° |
| 2026-04-29 18:29 | 56.44612 | 24.37035 | 2476 ft | 190 kts | 162° |
| 2026-04-29 18:29 | 56.42907 | 24.37941 | 2476 ft | 191 kts | 162° |
| 2026-04-29 18:29 | 56.41644 | 24.38613 | 2476 ft | 191 kts | 163° |
| 2026-04-29 18:30 | 56.40384 | 24.39281 | 2476 ft | 191 kts | 163° |
| 2026-04-29 18:30 | 56.39083 | 24.39971 | 2476 ft | 191 kts | 163° |
| 2026-04-29 18:30 | 56.37819 | 24.40642 | 2470 ft | 191 kts | 163° |
| 2026-04-29 18:30 | 56.36539 | 24.41321 | 2471 ft | 191 kts | 163° |
| 2026-04-29 18:31 | 56.35261 | 24.41996 | 2474 ft | 191 kts | 163° |
| 2026-04-29 18:31 | 56.33984 | 24.42671 | 2474 ft | 191 kts | 162° |
| 2026-04-29 18:31 | 56.32719 | 24.43342 | 2473 ft | 190 kts | 162° |
| 2026-04-29 18:31 | 56.31446 | 24.44016 | 2473 ft | 190 kts | 163° |
| 2026-04-29 18:32 | 56.30171 | 24.44688 | 2473 ft | 190 kts | 163° |
| 2026-04-29 18:32 | 56.27636 | 24.46025 | 2473 ft | 191 kts | 162° |
| 2026-04-29 18:32 | 56.26357 | 24.46700 | 2473 ft | 191 kts | 162° |
| 2026-04-29 18:33 | 56.25098 | 24.47363 | 2476 ft | 191 kts | 163° |
| 2026-04-29 18:33 | 56.23825 | 24.48032 | 2476 ft | 191 kts | 163° |
| 2026-04-29 18:33 | 56.22546 | 24.48705 | 2476 ft | 191 kts | 163° |
| 2026-04-29 18:33 | 56.21270 | 24.49376 | 2471 ft | 191 kts | 163° |
| 2026-04-29 18:34 | 56.19992 | 24.50046 | 2469 ft | 191 kts | 163° |
| 2026-04-29 18:34 | 56.19145 | 24.50489 | 2469 ft | 191 kts | 163° |
| 2026-04-29 18:34 | 56.17450 | 24.51380 | 2469 ft | 191 kts | 162° |
| 2026-04-29 18:34 | 56.16173 | 24.52051 | 2469 ft | 191 kts | 163° |
| 2026-04-29 18:35 | 56.14892 | 24.52689 | 2471 ft | 191 kts | 166° |
| 2026-04-29 18:35 | 56.13595 | 24.53200 | 2470 ft | 191 kts | 167° |
| 2026-04-29 18:35 | 56.12295 | 24.53715 | 2473 ft | 191 kts | 167° |
| 2026-04-29 18:35 | 56.11009 | 24.54254 | 2474 ft | 193 kts | 166° |
| 2026-04-29 18:36 | 56.09682 | 24.54815 | 2475 ft | 197 kts | 166° |
| 2026-04-29 18:36 | 56.08352 | 24.55368 | 2476 ft | 199 kts | 166° |
| 2026-04-29 18:36 | 56.06997 | 24.55932 | 2476 ft | 200 kts | 166° |
| 2026-04-29 18:36 | 56.05634 | 24.56503 | 2476 ft | 201 kts | 166° |
| 2026-04-29 18:37 | 56.04284 | 24.57065 | 2477 ft | 201 kts | 167° |
| 2026-04-29 18:37 | 56.02923 | 24.57633 | 2473 ft | 200 kts | 167° |
| 2026-04-29 18:37 | 56.01569 | 24.58196 | 2473 ft | 199 kts | 167° |
| 2026-04-29 18:37 | 56.00218 | 24.58755 | 2473 ft | 198 kts | 167° |
| 2026-04-29 18:38 | 55.98871 | 24.59314 | 2467 ft | 198 kts | 167° |
| 2026-04-29 18:38 | 55.97539 | 24.59869 | 2468 ft | 198 kts | 167° |
| 2026-04-29 18:38 | 55.96192 | 24.60428 | 2467 ft | 198 kts | 167° |
| 2026-04-29 18:38 | 55.94846 | 24.60985 | 2467 ft | 198 kts | 167° |
| 2026-04-29 18:39 | 55.93498 | 24.61544 | 2467 ft | 198 kts | 167° |
| 2026-04-29 18:39 | 55.92154 | 24.62101 | 2466 ft | 198 kts | 167° |
| 2026-04-29 18:39 | 55.90808 | 24.62658 | 2467 ft | 198 kts | 167° |
| 2026-04-29 18:39 | 55.89482 | 24.63205 | 2467 ft | 198 kts | 167° |
| 2026-04-29 18:40 | 55.88132 | 24.63762 | 2467 ft | 198 kts | 167° |
| 2026-04-29 18:40 | 55.86785 | 24.64319 | 2470 ft | 199 kts | 167° |
| 2026-04-29 18:40 | 55.85796 | 24.64728 | 2465 ft | 199 kts | 167° |